Text analysis for Will Fister (willfister)

Return to profile of Will Fister (willfister)

View texts not yet raced by Will Fister (willfister)

Sorted by best race

Rank Text Best WPM Overall Difficulty Relative Speed Text Length Races Average WPM Last race
1. You never read a book on psychology, Tippy. You didn't need ... 138.57 0.9857 0.1862 265 1 138.57 2024-01-27
2. As he watches through the door, his smile pulls in more and ... 138.51 1.0332 0.1368 263 1 138.51 2024-01-27
3. It seems to me that the best relationships, the ones that la... 134.38 1.0884 0.0469 360 1 134.38 2024-01-27
4. What a lamentable thing it is that men should blame the gods... 131.79 1.0927 0.0212 198 1 131.79 2024-01-27
5. Now wait a minute. Just a minute. There's only one thing you... 128.62 1.0548 0.0317 253 1 128.62 2024-01-27
6. Let us learn to appreciate there will be times when the tree... 128.55 1.1248 -0.0387 132 1 128.55 2024-01-27
7. Have you ever felt so strong that it made you feel weak? Lon... 127.73 1.0338 0.0452 294 1 127.73 2024-01-27
8. I can already hear your tune calling me across the room. Whe... 127.31 1.0630 0.0211 397 1 127.31 2024-01-27
9. Always do your best - your best is going to change from mome... 125.55 1.0038 0.0673 237 1 125.55 2024-01-27
10. Death is but crossing the world, as friends do the seas; the... 124.20 1.0429 0.0065 416 1 124.20 2024-01-27
11. If a man's wearing his pants on his head or if he says his w... 123.72 1.0197 0.0259 278 1 123.72 2024-01-27
12. When you decide to be something, you can be it. That's what ... 123.70 1.0290 0.0160 258 1 123.70 2024-01-27
13. People move because of the wear and tear of anxiety. Because... 123.59 1.0622 -0.0185 450 1 123.59 2024-01-27
14. Someday, I hope to make it clear to you that success is not ... 123.13 1.0321 0.0081 319 1 123.13 2024-01-27
15. Sometimes you concentrate more on racing the cars around you... 122.49 1.0968 -0.0518 365 1 122.49 2024-01-27
16. The mark of the immature man is that he wants to die nobly f... 122.45 1.1605 -0.1270 145 1 122.45 2024-01-27
17. All I'm asking is that you do the minimal amount of work in ... 121.66 1.0758 -0.0484 218 1 121.66 2024-01-27
18. We all love a good story. We all love a tantalizing mystery.... 121.19 1.0111 0.0129 282 1 121.19 2024-01-27
19. He has a life, a real life here. One that keeps him grounded... 121.04 1.0341 -0.0120 471 1 121.04 2024-01-27
20. You think you know how the world works? You think that this ... 120.69 0.9920 0.0274 492 1 120.69 2024-01-27
21. All I could think of was that the teachers must've found the... 119.97 1.0358 -0.0223 323 1 119.97 2024-01-27
22. I don't know if I will have the time to write any more lette... 119.71 1.0838 -0.0718 374 1 119.71 2024-01-27
23. Imagine this: Here we are, a plane full of grown human being... 117.43 0.9631 0.0452 345 1 117.43 2024-01-27
24. The men in the room suddenly realized that they didn't want ... 115.97 1.0319 -0.0519 215 1 115.97 2024-01-27
25. No cost too great. No mind to think. No will to break. No vo... 114.86 1.0111 -0.0436 211 1 114.86 2024-01-27
26. And now, as I close my task, subduing my desire to linger ye... 114.44 0.9989 -0.0313 222 1 114.44 2024-01-27
27. Morale was deteriorating and it was all Yossarian's fault. T... 112.86 0.9340 0.0199 183 1 112.86 2024-01-27
28. Well this seems to be a waste of my time. That is nine hundr... 112.29 0.9731 -0.0149 307 1 112.29 2024-01-27
29. Finally, don't expect your cooking to taste exactly like res... 111.41 0.8951 0.0465 246 1 111.41 2024-01-27
30. Employees earn and get taxed, and they try to live on what i... 109.91 1.0565 -0.1115 216 1 109.91 2024-01-27
31. After the grapes are crushed, yeasts (tiny one-celled organi... 109.34 0.9673 -0.0268 232 1 109.34 2024-01-27
32. If you are with the quality, or at a funeral, or trying to g... 105.55 1.0253 -0.1345 213 1 105.55 2024-01-27
33. Seeing someone lose it like that. You know, it reminded me o... 100.77 1.0257 -0.1749 260 1 100.77 2024-01-27
34. It's sometimes quite astonishing that a single, average life... 98.79 1.0347 -0.2007 162 1 98.79 2024-01-27
35. I'm going to improvise. Listen, there's something you should... 96.57 0.9650 -0.1491 226 1 96.57 2024-01-27